Time;durP1;ratioP1;P1;durP2;ratioP2;P2;SDS_P1;SDS_P2;PMS_P1;PMS_P2;Temp;Humidity;BMP_temperature;BMP_pressure;BME280_temperature;BME280_humidity;BME280_pressure;Samples;Min_cycle;Max_cycle;Signal;HPM_P1;HPM_P2
2022/08/26 00:00:10;;;;;;;5.40;1.38;;;;;;;;;;5015593;28;20510;-78
2022/08/26 00:02:35;;;;;;;3.15;1.40;;;;;;;;;;5013544;28;20029;-79
2022/08/26 00:05:01;;;;;;;6.63;1.60;;;;;;;;;;5015932;28;20087;-78
2022/08/26 00:07:26;;;;;;;6.13;1.48;;;;;;;;;;5016377;28;20285;-78
2022/08/26 00:09:52;;;;;;;4.25;1.52;;;;;;;;;;5014478;28;20033;-78
2022/08/26 00:12:17;;;;;;;5.25;1.50;;;;;;;;;;5013830;28;20026;-79
2022/08/26 00:14:43;;;;;;;4.05;1.35;;;;;;;;;;5015100;28;20199;-78
2022/08/26 00:17:08;;;;;;;4.05;1.35;;;;;;;;;;5017524;28;20037;-79
2022/08/26 00:19:34;;;;;;;3.65;1.20;;;;;;;;;;5016487;28;20034;-78
2022/08/26 00:21:59;;;;;;;5.20;1.45;;;;;;;;;;5016076;28;20022;-78
2022/08/26 00:24:25;;;;;;;5.07;1.55;;;;;;;;;;5017479;28;20046;-78
2022/08/26 00:26:50;;;;;;;4.65;1.17;;;;;;;;;;5016192;28;20029;-79
2022/08/26 00:29:16;;;;;;;5.95;1.58;;;;;;;;;;5016688;28;20195;-78
2022/08/26 00:31:42;;;;;;;4.20;1.52;;;;;;;;;;5016653;28;20076;-78
2022/08/26 00:34:08;;;;;;;4.97;1.40;;;;;;;;;;4998009;28;20025;-79
2022/08/26 00:36:34;;;;;;;8.48;1.50;;;;;;;;;;5012962;28;20018;-78
2022/08/26 00:39:00;;;;;;;8.95;1.52;;;;;;;;;;4997458;28;20050;-78
2022/08/26 00:41:25;;;;;;;7.53;1.52;;;;;;;;;;5016815;28;20044;-78
2022/08/26 00:43:51;;;;;;;6.95;1.50;;;;;;;;;;5013153;28;20049;-78
2022/08/26 00:46:34;;;;;;;4.13;1.25;;;;;;;;;;5013948;28;20605;-78
2022/08/26 00:49:08;;;;;;;3.90;1.33;;;;;;;;;;5014300;28;20113;-78
2022/08/26 00:51:41;;;;;;;5.68;1.40;;;;;;;;;;5012225;28;20030;-79
2022/08/26 00:54:09;;;;;;;6.30;1.73;;;;;;;;;;5009993;28;20026;-78
2022/08/26 00:57:01;;;;;;;4.88;1.35;;;;;;;;;;5014744;28;20026;-78
2022/08/26 00:59:28;;;;;;;8.30;1.40;;;;;;;;;;4995329;28;20086;-79
2022/08/26 01:01:55;;;;;;;5.13;1.48;;;;;;;;;;5012460;28;20026;-79
2022/08/26 01:04:22;;;;;;;5.97;1.30;;;;;;;;;;5013897;28;20026;-78
2022/08/26 01:06:51;;;;;;;6.35;1.42;;;;;;;;;;5012006;28;20428;-78
2022/08/26 01:09:18;;;;;;;7.50;1.50;;;;;;;;;;5014855;28;20017;-78
2022/08/26 01:11:44;;;;;;;5.20;1.50;;;;;;;;;;5014449;28;20041;-78
2022/08/26 01:14:12;;;;;;;5.28;1.45;;;;;;;;;;5010014;28;20033;-79
2022/08/26 01:16:38;;;;;;;3.95;1.20;;;;;;;;;;5015421;28;20093;-78
2022/08/26 01:19:19;;;;;;;5.80;1.50;;;;;;;;;;5012738;28;20495;-78
2022/08/26 01:21:55;;;;;;;8.95;1.63;;;;;;;;;;5014534;28;20022;-78
2022/08/26 01:24:20;;;;;;;6.13;1.40;;;;;;;;;;5014563;28;20049;-79
2022/08/26 01:26:47;;;;;;;3.63;1.40;;;;;;;;;;5014125;28;20037;-78
2022/08/26 01:29:16;;;;;;;4.97;1.42;;;;;;;;;;5016506;28;20060;-78
2022/08/26 01:31:46;;;;;;;7.25;1.67;;;;;;;;;;5011456;28;20053;-78
2022/08/26 01:34:34;;;;;;;6.82;1.70;;;;;;;;;;5013146;28;20061;-78
2022/08/26 01:37:14;;;;;;;6.38;1.58;;;;;;;;;;5015617;28;20111;-79
2022/08/26 01:39:40;;;;;;;5.13;1.50;;;;;;;;;;5018546;28;20041;-79
2022/08/26 01:42:09;;;;;;;9.85;1.58;;;;;;;;;;5015819;28;20060;-78
2022/08/26 01:44:41;;;;;;;4.07;1.20;;;;;;;;;;5012876;28;20101;-78
2022/08/26 01:47:08;;;;;;;7.00;1.50;;;;;;;;;;5014838;28;20367;-79
2022/08/26 01:49:35;;;;;;;5.13;1.40;;;;;;;;;;5018998;28;20074;-78
2022/08/26 01:52:03;;;;;;;5.88;1.33;;;;;;;;;;5019670;28;20034;-78
2022/08/26 01:54:28;;;;;;;4.68;1.60;;;;;;;;;;5017910;28;20037;-78
2022/08/26 01:56:54;;;;;;;7.38;1.45;;;;;;;;;;5016427;28;20057;-78
2022/08/26 01:59:22;;;;;;;5.65;1.45;;;;;;;;;;5014112;28;20327;-79
2022/08/26 02:01:47;;;;;;;4.60;1.27;;;;;;;;;;5016015;28;20348;-78
2022/08/26 02:04:27;;;;;;;7.45;1.63;;;;;;;;;;5016880;28;20026;-79
2022/08/26 02:06:55;;;;;;;9.27;1.50;;;;;;;;;;5013845;28;20037;-78
2022/08/26 02:09:22;;;;;;;6.93;1.40;;;;;;;;;;5016513;28;20093;-78
2022/08/26 02:11:48;;;;;;;5.90;1.30;;;;;;;;;;5014783;28;20400;-79
2022/08/26 02:14:17;;;;;;;6.03;1.58;;;;;;;;;;5017968;28;20034;-78
2022/08/26 02:16:46;;;;;;;5.78;1.60;;;;;;;;;;5017504;28;20071;-78
2022/08/26 02:19:14;;;;;;;5.18;1.50;;;;;;;;;;5016573;28;20022;-78
2022/08/26 02:21:41;;;;;;;6.63;1.60;;;;;;;;;;5017318;28;20064;-78
2022/08/26 02:24:12;;;;;;;5.18;1.40;;;;;;;;;;5014584;28;20038;-78
2022/08/26 02:26:39;;;;;;;5.57;1.40;;;;;;;;;;5014967;28;20094;-78
2022/08/26 02:29:10;;;;;;;5.95;1.40;;;;;;;;;;5013252;28;20026;-78
2022/08/26 02:31:36;;;;;;;6.57;1.42;;;;;;;;;;5017743;28;20030;-77
2022/08/26 02:34:14;;;;;;;6.05;1.33;;;;;;;;;;5013058;28;20089;-78
2022/08/26 02:36:40;;;;;;;5.75;1.35;;;;;;;;;;5015213;28;20553;-78
2022/08/26 02:39:06;;;;;;;6.65;1.42;;;;;;;;;;5015069;28;20034;-79
2022/08/26 02:41:32;;;;;;;5.93;1.45;;;;;;;;;;5012655;28;20120;-78
2022/08/26 02:43:58;;;;;;;4.57;1.20;;;;;;;;;;5014653;28;20062;-78
2022/08/26 02:46:24;;;;;;;4.43;1.27;;;;;;;;;;5016234;28;20033;-79
2022/08/26 02:48:49;;;;;;;6.38;1.40;;;;;;;;;;5012460;28;20090;-78
2022/08/26 02:51:15;;;;;;;7.15;1.60;;;;;;;;;;5015812;28;20093;-79
2022/08/26 02:53:41;;;;;;;6.97;1.40;;;;;;;;;;4995532;28;20038;-84
2022/08/26 02:56:07;;;;;;;4.68;1.40;;;;;;;;;;5018270;28;20055;-81
2022/08/26 02:58:33;;;;;;;5.60;1.40;;;;;;;;;;5012457;28;20029;-80
2022/08/26 03:00:58;;;;;;;4.72;1.20;;;;;;;;;;5009938;28;20022;-81
2022/08/26 03:03:24;;;;;;;4.03;1.35;;;;;;;;;;5012892;28;20388;-81
2022/08/26 03:05:50;;;;;;;4.20;1.30;;;;;;;;;;5014096;28;20281;-81
2022/08/26 03:08:16;;;;;;;4.95;1.30;;;;;;;;;;5015197;28;20030;-80
2022/08/26 03:10:41;;;;;;;5.47;1.67;;;;;;;;;;5015748;28;20036;-81
2022/08/26 03:13:07;;;;;;;6.18;1.55;;;;;;;;;;5016511;28;20330;-81
2022/08/26 03:15:32;;;;;;;5.82;1.70;;;;;;;;;;5013200;28;20030;-81
2022/08/26 03:17:57;;;;;;;5.43;1.60;;;;;;;;;;5011987;28;20037;-81
2022/08/26 03:20:23;;;;;;;5.45;1.60;;;;;;;;;;5010770;28;20037;-81
2022/08/26 03:22:52;;;;;;;5.05;1.40;;;;;;;;;;5013536;28;20055;-81
2022/08/26 03:25:19;;;;;;;6.75;1.58;;;;;;;;;;5012326;28;20025;-81
2022/08/26 03:27:44;;;;;;;4.45;1.42;;;;;;;;;;5013432;28;20029;-81
2022/08/26 03:32:57;;;;;;;5.50;1.45;;;;;;;;;;5012406;28;20083;-81
2022/08/26 03:35:24;;;;;;;3.63;1.30;;;;;;;;;;5011582;28;20046;-81
2022/08/26 03:37:50;;;;;;;5.00;1.35;;;;;;;;;;5011209;28;20025;-81
2022/08/26 03:40:16;;;;;;;5.32;1.50;;;;;;;;;;5015371;28;20059;-82
2022/08/26 03:42:43;;;;;;;6.03;1.83;;;;;;;;;;5012659;28;20401;-81
2022/08/26 03:45:10;;;;;;;4.32;1.50;;;;;;;;;;5014280;28;20030;-80
2022/08/26 03:47:36;;;;;;;7.68;1.80;;;;;;;;;;5009232;28;20619;-81
2022/08/26 03:50:03;;;;;;;5.57;1.52;;;;;;;;;;5009311;28;20102;-82
2022/08/26 03:52:29;;;;;;;6.75;1.48;;;;;;;;;;4990975;28;20030;-81
2022/08/26 03:54:54;;;;;;;2.92;1.20;;;;;;;;;;5012237;28;20030;-81
2022/08/26 03:57:20;;;;;;;5.65;1.70;;;;;;;;;;5010845;28;20485;-80
2022/08/26 03:59:45;;;;;;;4.38;1.50;;;;;;;;;;5008591;28;20036;-81
2022/08/26 04:02:10;;;;;;;4.30;1.33;;;;;;;;;;5009284;28;20095;-81
2022/08/26 04:04:36;;;;;;;4.82;1.38;;;;;;;;;;5014115;28;20251;-80
2022/08/26 04:07:02;;;;;;;6.35;1.25;;;;;;;;;;5010583;28;20033;-80
2022/08/26 04:09:28;;;;;;;5.63;1.70;;;;;;;;;;5008537;28;20041;-80
2022/08/26 04:11:54;;;;;;;3.92;1.40;;;;;;;;;;5009491;28;20074;-80
2022/08/26 04:14:22;;;;;;;4.68;1.60;;;;;;;;;;5011360;28;20045;-81
2022/08/26 04:16:48;;;;;;;10.85;1.60;;;;;;;;;;5011535;28;20430;-81
2022/08/26 04:19:15;;;;;;;4.70;1.55;;;;;;;;;;5012861;28;20405;-81
2022/08/26 04:21:41;;;;;;;5.72;1.77;;;;;;;;;;5008666;28;20105;-81
2022/08/26 04:24:09;;;;;;;4.65;1.98;;;;;;;;;;5013512;28;20095;-81
2022/08/26 04:26:38;;;;;;;6.75;1.65;;;;;;;;;;5012120;28;20036;-81
2022/08/26 04:29:08;;;;;;;5.00;1.75;;;;;;;;;;4994538;28;20052;-82
2022/08/26 04:31:35;;;;;;;5.57;1.87;;;;;;;;;;5012915;28;20029;-81
2022/08/26 04:34:00;;;;;;;3.05;1.50;;;;;;;;;;5010458;28;20030;-81
2022/08/26 04:36:26;;;;;;;5.43;1.90;;;;;;;;;;5009843;28;20095;-81
2022/08/26 04:38:51;;;;;;;4.03;1.75;;;;;;;;;;5010551;28;20041;-80
2022/08/26 04:41:18;;;;;;;7.97;1.83;;;;;;;;;;5017044;28;20328;-81
2022/08/26 04:43:45;;;;;;;7.40;1.73;;;;;;;;;;5009120;28;20562;-81
2022/08/26 04:46:11;;;;;;;7.60;1.80;;;;;;;;;;5015769;28;20225;-81
2022/08/26 04:48:36;;;;;;;5.55;1.90;;;;;;;;;;5011263;28;20059;-81
2022/08/26 04:51:03;;;;;;;5.65;1.80;;;;;;;;;;5011502;28;20030;-81
2022/08/26 04:53:29;;;;;;;3.28;1.60;;;;;;;;;;5010086;28;20447;-78
2022/08/26 04:55:55;;;;;;;4.85;1.95;;;;;;;;;;5010953;28;20022;-81
2022/08/26 04:58:23;;;;;;;4.85;1.80;;;;;;;;;;5010348;28;20030;-77
2022/08/26 05:00:51;;;;;;;5.22;1.80;;;;;;;;;;5013227;28;20413;-80
2022/08/26 05:03:17;;;;;;;9.82;1.90;;;;;;;;;;5013242;28;20077;-79
2022/08/26 05:05:44;;;;;;;3.35;1.65;;;;;;;;;;5013520;28;20096;-80
2022/08/26 05:08:12;;;;;;;5.55;1.77;;;;;;;;;;5012243;28;20419;-79
2022/08/26 05:10:43;;;;;;;4.85;1.75;;;;;;;;;;5014384;28;20059;-80
2022/08/26 05:13:10;;;;;;;6.88;1.92;;;;;;;;;;5012279;28;20538;-80
2022/08/26 05:15:35;;;;;;;5.55;1.85;;;;;;;;;;5013066;28;20426;-79
2022/08/26 05:18:06;;;;;;;5.25;1.90;;;;;;;;;;5015074;28;20026;-80
2022/08/26 05:20:32;;;;;;;5.13;1.80;;;;;;;;;;5017185;28;20034;-81
2022/08/26 05:22:59;;;;;;;8.43;1.83;;;;;;;;;;5017613;28;20034;-81
2022/08/26 05:25:26;;;;;;;5.43;1.83;;;;;;;;;;5015648;28;20080;-81
2022/08/26 05:27:52;;;;;;;7.00;2.30;;;;;;;;;;5015745;28;20064;-82
2022/08/26 05:30:17;;;;;;;6.60;2.00;;;;;;;;;;5014345;28;20030;-81
2022/08/26 05:32:43;;;;;;;6.22;2.00;;;;;;;;;;5013404;28;20033;-81
2022/08/26 05:35:08;;;;;;;7.60;1.95;;;;;;;;;;5010484;28;20029;-81
2022/08/26 05:37:36;;;;;;;9.50;2.00;;;;;;;;;;5012980;28;20029;-81
2022/08/26 05:40:03;;;;;;;7.60;1.98;;;;;;;;;;5015351;28;20026;-81
2022/08/26 05:42:29;;;;;;;9.35;2.15;;;;;;;;;;5010340;28;20109;-81
2022/08/26 05:44:55;;;;;;;3.70;1.80;;;;;;;;;;5010652;28;20117;-81
2022/08/26 05:47:20;;;;;;;5.15;2.00;;;;;;;;;;5010329;28;20108;-81
2022/08/26 05:49:46;;;;;;;5.63;1.98;;;;;;;;;;5016936;28;20041;-78
2022/08/26 05:52:11;;;;;;;8.27;2.17;;;;;;;;;;5010075;28;20079;-76
2022/08/26 05:54:40;;;;;;;6.90;2.03;;;;;;;;;;5009745;28;20071;-75
2022/08/26 05:57:05;;;;;;;7.28;2.10;;;;;;;;;;5011404;28;20025;-78
2022/08/26 05:59:31;;;;;;;5.50;1.80;;;;;;;;;;5013615;28;20125;-81
2022/08/26 06:01:56;;;;;;;6.53;2.17;;;;;;;;;;5013231;28;20017;-81
2022/08/26 06:04:24;;;;;;;7.55;2.35;;;;;;;;;;5012767;28;20022;-82
2022/08/26 06:06:49;;;;;;;5.60;2.15;;;;;;;;;;5009872;28;20661;-78
2022/08/26 06:09:15;;;;;;;3.95;2.03;;;;;;;;;;5009971;28;20026;-81
2022/08/26 06:11:40;;;;;;;5.40;2.20;;;;;;;;;;5009936;28;20033;-81
2022/08/26 06:14:07;;;;;;;4.00;2.10;;;;;;;;;;5009103;28;20034;-81
2022/08/26 06:16:38;;;;;;;4.82;2.53;;;;;;;;;;5009567;28;20034;-80
2022/08/26 06:19:05;;;;;;;5.68;2.35;;;;;;;;;;5012010;28;20021;-81
2022/08/26 06:21:37;;;;;;;5.65;2.47;;;;;;;;;;5009452;28;20121;-80
2022/08/26 06:26:53;;;;;;;5.85;2.55;;;;;;;;;;5010215;28;20032;-75
2022/08/26 06:29:21;;;;;;;7.40;3.00;;;;;;;;;;4992346;28;20393;-77
2022/08/26 06:31:46;;;;;;;6.93;2.83;;;;;;;;;;5009578;28;20025;-75
2022/08/26 06:34:12;;;;;;;7.93;2.55;;;;;;;;;;5009777;28;20027;-79
2022/08/26 06:36:41;;;;;;;7.57;2.60;;;;;;;;;;5009341;28;20053;-74
2022/08/26 06:39:09;;;;;;;5.40;2.25;;;;;;;;;;5010653;28;20030;-78
2022/08/26 06:41:36;;;;;;;6.07;2.22;;;;;;;;;;5009386;28;20034;-74
2022/08/26 06:44:03;;;;;;;4.25;2.50;;;;;;;;;;5010276;28;20074;-77
2022/08/26 06:46:29;;;;;;;3.70;2.05;;;;;;;;;;5009266;28;20030;-79
2022/08/26 06:48:57;;;;;;;5.03;2.22;;;;;;;;;;5008268;28;20048;-77
2022/08/26 06:51:27;;;;;;;6.50;2.20;;;;;;;;;;5009156;28;20022;-80
2022/08/26 06:53:54;;;;;;;4.88;2.50;;;;;;;;;;5012037;28;20041;-81
2022/08/26 06:56:23;;;;;;;7.88;2.30;;;;;;;;;;5015268;28;20320;-81
2022/08/26 06:58:50;;;;;;;6.40;2.42;;;;;;;;;;5019125;28;20088;-84
2022/08/26 07:01:18;;;;;;;6.65;2.42;;;;;;;;;;5019680;28;20082;-78
2022/08/26 07:03:45;;;;;;;7.78;2.67;;;;;;;;;;5020040;28;20026;-79
2022/08/26 07:06:10;;;;;;;6.43;2.53;;;;;;;;;;5019070;28;20426;-78
2022/08/26 07:08:36;;;;;;;6.40;2.58;;;;;;;;;;5019696;28;20373;-80
2022/08/26 07:11:08;;;;;;;5.03;2.20;;;;;;;;;;5016729;28;20026;-78
2022/08/26 07:13:36;;;;;;;6.65;2.50;;;;;;;;;;5018568;28;20022;-84
2022/08/26 07:16:11;;;;;;;7.45;2.45;;;;;;;;;;5018842;28;20037;-76
2022/08/26 07:18:38;;;;;;;5.78;2.58;;;;;;;;;;5018764;28;20026;-73
2022/08/26 07:21:05;;;;;;;7.28;2.30;;;;;;;;;;5018157;28;20030;-73
2022/08/26 07:23:32;;;;;;;5.53;2.40;;;;;;;;;;5000143;28;20333;-73
2022/08/26 07:25:58;;;;;;;5.78;2.10;;;;;;;;;;5018738;28;20022;-73
2022/08/26 07:28:24;;;;;;;4.10;2.38;;;;;;;;;;5018555;28;20110;-73
2022/08/26 07:30:49;;;;;;;5.70;2.30;;;;;;;;;;5014348;28;20435;-73
2022/08/26 07:33:16;;;;;;;6.13;2.30;;;;;;;;;;5006906;28;20030;-74
2022/08/26 07:35:43;;;;;;;4.13;2.10;;;;;;;;;;5006145;28;20112;-76
2022/08/26 07:38:09;;;;;;;5.80;2.38;;;;;;;;;;5006866;28;20030;-74
2022/08/26 07:40:35;;;;;;;4.78;2.30;;;;;;;;;;5008390;28;20099;-75
2022/08/26 07:43:00;;;;;;;4.32;2.15;;;;;;;;;;4989550;28;20493;-74
2022/08/26 07:45:26;;;;;;;4.90;2.00;;;;;;;;;;5007967;28;20034;-74
2022/08/26 07:47:51;;;;;;;5.93;2.20;;;;;;;;;;5008375;28;20522;-74
2022/08/26 07:50:17;;;;;;;4.88;2.20;;;;;;;;;;5008171;28;20029;-74
2022/08/26 07:52:42;;;;;;;3.97;2.03;;;;;;;;;;5008219;28;20030;-74
2022/08/26 07:55:09;;;;;;;6.32;2.40;;;;;;;;;;5007866;28;20395;-74
2022/08/26 07:57:35;;;;;;;6.32;2.00;;;;;;;;;;5008052;28;20131;-74
2022/08/26 08:00:03;;;;;;;5.40;2.30;;;;;;;;;;5008193;28;20472;-74
2022/08/26 08:02:28;;;;;;;3.90;2.00;;;;;;;;;;5008147;28;20065;-75
2022/08/26 08:04:55;;;;;;;4.55;2.40;;;;;;;;;;5008043;28;20489;-74
2022/08/26 08:07:21;;;;;;;6.63;2.10;;;;;;;;;;5008188;28;20030;-74
2022/08/26 08:09:50;;;;;;;4.70;2.33;;;;;;;;;;4990303;28;20405;-74
2022/08/26 08:12:16;;;;;;;5.95;2.42;;;;;;;;;;5007817;28;20030;-74
2022/08/26 08:14:44;;;;;;;4.15;2.00;;;;;;;;;;5007651;28;20477;-74
2022/08/26 08:17:10;;;;;;;7.70;2.30;;;;;;;;;;5007800;28;20059;-74
2022/08/26 08:19:35;;;;;;;5.05;2.20;;;;;;;;;;5008071;28;20059;-74
2022/08/26 08:22:03;;;;;;;6.60;2.33;;;;;;;;;;5007748;28;20117;-74
2022/08/26 08:24:29;;;;;;;6.05;2.00;;;;;;;;;;5007652;28;20022;-74
2022/08/26 08:26:55;;;;;;;8.73;2.13;;;;;;;;;;5007607;28;20014;-73
2022/08/26 08:29:20;;;;;;;4.63;2.20;;;;;;;;;;5007623;28;20030;-74
2022/08/26 08:31:47;;;;;;;9.82;2.47;;;;;;;;;;5007646;28;20025;-74
2022/08/26 08:34:13;;;;;;;4.00;1.98;;;;;;;;;;5007575;28;20026;-74
2022/08/26 08:36:39;;;;;;;4.25;2.08;;;;;;;;;;5007744;28;20482;-74
2022/08/26 08:39:04;;;;;;;9.30;2.10;;;;;;;;;;5007696;28;20080;-74
2022/08/26 08:41:39;;;;;;;5.63;2.05;;;;;;;;;;5007642;28;20045;-74
2022/08/26 08:44:13;;;;;;;5.03;2.15;;;;;;;;;;5006461;28;20133;-74
2022/08/26 08:46:41;;;;;;;5.40;2.10;;;;;;;;;;4988885;28;20653;-74
2022/08/26 08:49:08;;;;;;;4.68;2.10;;;;;;;;;;5006601;28;20029;-74
2022/08/26 08:51:39;;;;;;;8.43;2.05;;;;;;;;;;5006709;28;20401;-74
2022/08/26 08:54:06;;;;;;;4.10;2.00;;;;;;;;;;5006498;28;20037;-73
2022/08/26 08:56:37;;;;;;;4.78;2.25;;;;;;;;;;5006658;28;20030;-74
2022/08/26 08:59:16;;;;;;;4.80;2.40;;;;;;;;;;5006443;28;20041;-74
2022/08/26 09:01:50;;;;;;;8.73;2.20;;;;;;;;;;5006315;28;20058;-74
2022/08/26 09:04:34;;;;;;;5.07;1.85;;;;;;;;;;5006212;28;20034;-74
2022/08/26 09:07:01;;;;;;;6.38;2.20;;;;;;;;;;5006464;28;20493;-74
2022/08/26 09:09:48;;;;;;;3.15;2.00;;;;;;;;;;5006573;28;20492;-74
2022/08/26 09:12:19;;;;;;;2.47;1.80;;;;;;;;;;5006356;28;20500;-74
2022/08/26 09:14:46;;;;;;;3.08;2.00;;;;;;;;;;5006232;28;20093;-73
2022/08/26 09:17:24;;;;;;;5.30;2.20;;;;;;;;;;5006376;28;20030;-74
2022/08/26 09:20:06;;;;;;;4.57;2.00;;;;;;;;;;5006683;28;20060;-73
2022/08/26 09:22:35;;;;;;;4.70;2.40;;;;;;;;;;5006112;28;20026;-73
2022/08/26 09:25:04;;;;;;;3.53;1.80;;;;;;;;;;5005939;28;20029;-73
2022/08/26 09:27:49;;;;;;;5.57;1.88;;;;;;;;;;5006274;28;20061;-74
2022/08/26 09:30:28;;;;;;;3.80;1.90;;;;;;;;;;5006208;28;20023;-74
2022/08/26 09:33:04;;;;;;;3.63;1.73;;;;;;;;;;5006132;28;20026;-74
2022/08/26 09:35:36;;;;;;;3.97;1.83;;;;;;;;;;5008560;28;20052;-73
2022/08/26 09:38:18;;;;;;;4.35;1.90;;;;;;;;;;5005850;28;20097;-73
2022/08/26 09:41:00;;;;;;;4.18;1.73;;;;;;;;;;5005997;28;20030;-76
2022/08/26 09:43:27;;;;;;;5.40;1.98;;;;;;;;;;4967385;28;1114759;-73
2022/08/26 09:46:09;;;;;;;4.05;1.67;;;;;;;;;;5007001;28;20045;-73
2022/08/26 09:48:37;;;;;;;4.28;1.80;;;;;;;;;;5006844;28;20022;-73
2022/08/26 09:51:21;;;;;;;3.47;1.70;;;;;;;;;;5006882;28;20626;-73
2022/08/26 09:53:56;;;;;;;4.10;1.70;;;;;;;;;;5006572;28;20505;-73
2022/08/26 09:56:27;;;;;;;3.90;1.70;;;;;;;;;;5006499;28;20504;-73
2022/08/26 09:58:55;;;;;;;5.07;2.03;;;;;;;;;;5008570;28;20022;-73
2022/08/26 10:01:34;;;;;;;3.65;1.73;;;;;;;;;;5009971;28;20071;-74
2022/08/26 10:04:19;;;;;;;5.07;1.70;;;;;;;;;;5010012;28;20082;-73
2022/08/26 10:07:02;;;;;;;4.03;1.70;;;;;;;;;;5010144;28;20021;-73
2022/08/26 10:09:32;;;;;;;6.05;1.90;;;;;;;;;;5009898;28;20111;-73
2022/08/26 10:12:05;;;;;;;4.75;1.90;;;;;;;;;;5009668;28;20087;-74
2022/08/26 10:14:43;;;;;;;6.38;2.00;;;;;;;;;;5009576;28;20030;-74
2022/08/26 10:17:11;;;;;;;4.80;1.80;;;;;;;;;;5009630;28;20022;-72
2022/08/26 10:20:17;;;;;;;4.00;1.77;;;;;;;;;;5009976;28;20034;-71
2022/08/26 10:22:54;;;;;;;4.57;1.70;;;;;;;;;;5009270;28;20493;-73
2022/08/26 10:25:24;;;;;;;2.25;1.70;;;;;;;;;;5009394;28;20026;-77
2022/08/26 10:27:57;;;;;;;5.00;1.90;;;;;;;;;;5009484;28;20474;-72
2022/08/26 10:30:30;;;;;;;4.72;1.80;;;;;;;;;;5009443;28;20036;-72
2022/08/26 10:33:05;;;;;;;4.10;1.65;;;;;;;;;;4991698;28;20040;-73
2022/08/26 10:35:33;;;;;;;8.90;1.70;;;;;;;;;;5009193;28;20029;-72
2022/08/26 10:38:13;;;;;;;4.28;1.70;;;;;;;;;;5009445;28;20026;-74
2022/08/26 10:40:53;;;;;;;4.00;1.80;;;;;;;;;;5009680;28;20034;-72
2022/08/26 10:43:31;;;;;;;3.47;1.40;;;;;;;;;;5009126;28;20490;-73
2022/08/26 10:46:02;;;;;;;2.80;1.50;;;;;;;;;;5009047;28;20030;-74
2022/08/26 10:48:46;;;;;;;2.58;1.45;;;;;;;;;;5009013;28;20033;-74
2022/08/26 10:51:15;;;;;;;3.47;1.50;;;;;;;;;;5009074;28;20083;-73
2022/08/26 10:53:57;;;;;;;3.25;1.20;;;;;;;;;;5009238;28;20030;-73
2022/08/26 10:56:42;;;;;;;3.90;1.42;;;;;;;;;;5009010;28;20499;-71
2022/08/26 10:59:19;;;;;;;2.35;1.17;;;;;;;;;;5009154;28;20125;-71
2022/08/26 11:01:45;;;;;;;3.00;1.40;;;;;;;;;;5009038;28;20053;-74
2022/08/26 11:04:20;;;;;;;3.75;1.55;;;;;;;;;;5008996;28;20029;-74
2022/08/26 11:06:45;;;;;;;2.65;1.30;;;;;;;;;;5008759;28;20034;-74
2022/08/26 11:09:31;;;;;;;2.50;1.30;;;;;;;;;;5007791;28;20026;-73
2022/08/26 11:11:57;;;;;;;3.85;1.30;;;;;;;;;;5008678;28;20434;-73
2022/08/26 11:14:22;;;;;;;3.70;1.25;;;;;;;;;;5008730;28;20116;-75
2022/08/26 11:16:53;;;;;;;5.03;1.50;;;;;;;;;;5008750;28;20401;-77
2022/08/26 11:19:40;;;;;;;;;;;;;;;;;;5009387;28;20036;-73
2022/08/26 11:22:25;;;;;;;6.28;1.70;;;;;;;;;;5008778;28;19920;-73
2022/08/26 11:24:51;;;;;;;5.07;1.50;;;;;;;;;;5008401;28;20074;-72
2022/08/26 11:27:23;;;;;;;3.78;1.30;;;;;;;;;;5008437;28;20099;-74
2022/08/26 11:30:00;;;;;;;4.68;1.30;;;;;;;;;;5008628;28;20113;-76
2022/08/26 11:32:49;;;;;;;3.08;1.40;;;;;;;;;;5008729;28;20109;-78
2022/08/26 11:35:37;;;;;;;3.03;1.20;;;;;;;;;;5008951;28;20026;-76
2022/08/26 11:38:13;;;;;;;3.22;1.27;;;;;;;;;;5009674;28;20105;-73
2022/08/26 11:40:40;;;;;;;2.67;1.20;;;;;;;;;;5018459;28;20317;-81
2022/08/26 11:43:22;;;;;;;1.85;1.10;;;;;;;;;;5016835;28;20050;-80
2022/08/26 11:46:09;;;;;;;2.95;1.30;;;;;;;;;;5018018;28;20041;-78
2022/08/26 11:48:42;;;;;;;5.95;1.40;;;;;;;;;;5018616;28;20094;-76
2022/08/26 11:51:20;;;;;;;3.83;1.30;;;;;;;;;;5002229;28;20071;-74
2022/08/26 11:53:45;;;;;;;2.83;1.10;;;;;;;;;;5008281;28;20029;-75
2022/08/26 11:56:25;;;;;;;3.70;1.38;;;;;;;;;;5008055;28;20048;-75
2022/08/26 11:58:53;;;;;;;;;;;;;;;;;;4991401;28;20370;-74
2022/08/26 12:01:28;;;;;;;4.38;1.48;;;;;;;;;;5010278;28;19914;-74
2022/08/26 12:03:54;;;;;;;5.90;1.60;;;;;;;;;;5008195;28;20478;-73
2022/08/26 12:06:31;;;;;;;3.53;1.30;;;;;;;;;;5007833;28;20029;-73
2022/08/26 12:08:59;;;;;;;3.53;1.10;;;;;;;;;;5008305;28;20425;-73
2022/08/26 12:11:30;;;;;;;2.13;1.10;;;;;;;;;;5008047;28;20030;-73
2022/08/26 12:14:01;;;;;;;5.15;1.20;;;;;;;;;;5007722;28;20521;-73
2022/08/26 12:16:29;;;;;;;5.10;1.20;;;;;;;;;;5007706;28;20037;-73
2022/08/26 12:18:55;;;;;;;3.13;1.20;;;;;;;;;;5007927;28;20615;-73
2022/08/26 12:21:25;;;;;;;2.90;1.42;;;;;;;;;;5007382;28;20435;-78
2022/08/26 12:24:01;;;;;;;3.92;1.35;;;;;;;;;;5011247;28;20085;-74
2022/08/26 12:26:34;;;;;;;3.05;1.20;;;;;;;;;;5011982;28;20082;-74
2022/08/26 12:29:04;;;;;;;3.67;1.48;;;;;;;;;;5007948;28;20116;-74
2022/08/26 12:31:36;;;;;;;3.00;1.30;;;;;;;;;;5010683;28;20038;-74
2022/08/26 12:34:05;;;;;;;2.40;1.02;;;;;;;;;;5006202;28;20026;-73
2022/08/26 12:36:38;;;;;;;3.50;1.27;;;;;;;;;;5007220;28;20067;-72
2022/08/26 12:39:07;;;;;;;2.47;1.10;;;;;;;;;;5007481;28;20026;-73
2022/08/26 12:41:40;;;;;;;2.72;1.10;;;;;;;;;;5007684;28;20029;-76
2022/08/26 12:44:06;;;;;;;2.15;1.20;;;;;;;;;;5007141;28;20102;-75
2022/08/26 12:46:32;;;;;;;2.72;1.25;;;;;;;;;;5007529;28;20029;-73
2022/08/26 12:49:00;;;;;;;3.45;1.40;;;;;;;;;;5007402;28;20026;-73
2022/08/26 12:51:31;;;;;;;2.78;1.15;;;;;;;;;;5007161;28;20479;-73
2022/08/26 12:53:57;;;;;;;2.35;1.10;;;;;;;;;;5007314;28;20109;-73
2022/08/26 12:56:26;;;;;;;2.95;1.42;;;;;;;;;;5007115;28;20029;-73
2022/08/26 12:59:21;;;;;;;3.08;1.13;;;;;;;;;;5007431;28;20026;-73
2022/08/26 13:01:48;;;;;;;4.15;1.33;;;;;;;;;;5007404;28;20026;-73
2022/08/26 13:04:35;;;;;;;1.70;1.10;;;;;;;;;;5007422;28;20022;-73
2022/08/26 13:07:24;;;;;;;3.83;1.25;;;;;;;;;;5007194;28;20054;-73
2022/08/26 13:09:53;;;;;;;3.03;1.08;;;;;;;;;;5007091;28;20022;-73
2022/08/26 13:12:25;;;;;;;3.53;1.20;;;;;;;;;;4989461;28;20267;-73
2022/08/26 13:14:50;;;;;;;4.07;1.20;;;;;;;;;;4989654;28;20038;-73
2022/08/26 13:17:15;;;;;;;2.05;1.08;;;;;;;;;;5008253;28;20535;-73
2022/08/26 13:19:41;;;;;;;1.90;1.10;;;;;;;;;;5013497;28;20247;-73
2022/08/26 13:22:10;;;;;;;3.53;1.30;;;;;;;;;;5012679;28;20026;-73
2022/08/26 13:24:39;;;;;;;3.75;1.00;;;;;;;;;;5008396;28;20069;-73
2022/08/26 13:27:07;;;;;;;2.97;1.20;;;;;;;;;;5007194;28;20040;-73
2022/08/26 13:29:33;;;;;;;2.70;1.13;;;;;;;;;;5006952;28;20060;-73
2022/08/26 13:31:58;;;;;;;4.65;1.30;;;;;;;;;;5007459;28;20539;-73
2022/08/26 13:34:24;;;;;;;3.17;1.08;;;;;;;;;;5011580;28;20104;-73
2022/08/26 13:36:52;;;;;;;2.42;1.10;;;;;;;;;;5011095;28;20022;-73
2022/08/26 13:39:18;;;;;;;2.28;1.15;;;;;;;;;;5010487;28;20029;-73
2022/08/26 13:41:43;;;;;;;2.65;1.10;;;;;;;;;;5010461;28;20034;-73
2022/08/26 13:44:09;;;;;;;2.85;1.30;;;;;;;;;;5006400;28;20054;-76
2022/08/26 13:46:35;;;;;;;1.83;1.02;;;;;;;;;;5005750;28;20034;-74
2022/08/26 13:49:01;;;;;;;2.80;1.20;;;;;;;;;;4996439;28;20057;-74
2022/08/26 13:51:27;;;;;;;2.65;1.25;;;;;;;;;;5002823;28;20627;-73
2022/08/26 13:53:53;;;;;;;5.10;1.30;;;;;;;;;;4970697;28;20092;-75
2022/08/26 13:56:19;;;;;;;3.70;1.30;;;;;;;;;;4990459;28;20031;-75
2022/08/26 13:58:45;;;;;;;5.00;1.20;;;;;;;;;;4988555;28;20558;-74
2022/08/26 14:01:11;;;;;;;4.22;1.20;;;;;;;;;;4988987;28;20023;-74
2022/08/26 14:03:37;;;;;;;3.65;1.40;;;;;;;;;;4989154;28;20072;-75
2022/08/26 14:06:02;;;;;;;3.65;1.20;;;;;;;;;;4989170;28;20394;-74
2022/08/26 14:08:29;;;;;;;3.67;1.40;;;;;;;;;;4989360;28;20061;-74
2022/08/26 14:10:55;;;;;;;4.47;1.15;;;;;;;;;;4989268;28;20054;-73
2022/08/26 14:13:20;;;;;;;2.38;1.02;;;;;;;;;;4988670;28;20061;-74
2022/08/26 14:15:46;;;;;;;2.70;1.23;;;;;;;;;;4988994;28;20406;-75
2022/08/26 14:18:14;;;;;;;2.85;1.30;;;;;;;;;;4988908;28;20432;-74
2022/08/26 14:20:45;;;;;;;2.85;1.30;;;;;;;;;;4988971;28;20031;-74
2022/08/26 14:23:10;;;;;;;;;;;;;;;;;;4989198;28;20026;-74
2022/08/26 14:25:35;;;;;;;2.60;1.20;;;;;;;;;;4988960;28;19921;-74
2022/08/26 14:28:01;;;;;;;4.10;1.25;;;;;;;;;;4988401;28;20269;-73
2022/08/26 14:30:27;;;;;;;3.72;1.10;;;;;;;;;;4989001;28;20026;-73
2022/08/26 14:32:55;;;;;;;2.25;1.25;;;;;;;;;;4988972;28;20038;-75
2022/08/26 14:35:24;;;;;;;5.82;1.33;;;;;;;;;;4988562;28;20042;-74
2022/08/26 14:37:50;;;;;;;2.53;1.10;;;;;;;;;;4988431;28;20105;-74
2022/08/26 14:40:17;;;;;;;3.95;1.30;;;;;;;;;;4988779;28;20026;-74
2022/08/26 14:42:48;;;;;;;2.15;1.10;;;;;;;;;;4988306;28;20030;-74
2022/08/26 14:45:16;;;;;;;2.92;1.30;;;;;;;;;;4988601;28;20382;-75
2022/08/26 14:47:44;;;;;;;3.88;1.10;;;;;;;;;;4988615;28;20050;-74
2022/08/26 14:50:10;;;;;;;4.40;1.08;;;;;;;;;;4988917;28;20167;-73
2022/08/26 14:54:10;;;;;;;3.15;1.30;;;;;;;;;;4988648;28;20034;-74
2022/08/26 14:55:21;;;;;;;2.05;1.20;;;;;;;;;;4988320;28;20057;-74
2022/08/26 14:57:47;;;;;;;2.35;1.23;;;;;;;;;;4988132;28;20030;-73
2022/08/26 15:00:13;;;;;;;4.72;1.40;;;;;;;;;;4988649;28;20079;-74